createdAt,value
2022-08-27T00:02:10.239Z,86.36
2022-08-27T00:04:41.091Z,86.67
2022-08-27T00:07:10.741Z,86.83
2022-08-27T00:09:39.173Z,86.89
2022-08-27T00:12:08.947Z,87.28
2022-08-27T00:14:40.122Z,86.52
2022-08-27T00:17:09.395Z,86.63
2022-08-27T00:19:38.145Z,87.28
2022-08-27T00:22:08.238Z,86.61
2022-08-27T00:24:36.438Z,86.46
2022-08-27T00:27:12.972Z,86.77
2022-08-27T00:29:42.572Z,86.32
2022-08-27T00:32:10.795Z,87.19
2022-08-27T00:34:38.962Z,87.41
2022-08-27T00:37:07.642Z,85.33
2022-08-27T00:39:37.063Z,85.93
2022-08-27T00:42:06.704Z,85.76
2022-08-27T00:44:35.511Z,86.86
2022-08-27T00:47:13.425Z,87.51
2022-08-27T00:49:46.196Z,88.17
2022-08-27T00:52:23.004Z,86.73
2022-08-27T00:54:55.690Z,87.01
2022-08-27T00:57:24.140Z,87.72
2022-08-27T00:59:52.474Z,88.47
2022-08-27T01:02:26.030Z,89.07
2022-08-27T01:05:00.545Z,89.42
2022-08-27T01:07:33.924Z,89.60
2022-08-27T01:10:08.020Z,89.50
2022-08-27T01:12:37.404Z,89.84
2022-08-27T01:15:11.962Z,89.48
2022-08-27T01:17:45.267Z,89.40
2022-08-27T01:20:20.104Z,89.65
2022-08-27T01:23:00.267Z,89.53
2022-08-27T01:25:31.258Z,89.50
2022-08-27T01:28:02.868Z,88.86
2022-08-27T01:30:32.567Z,86.77
2022-08-27T01:33:00.752Z,87.35
2022-08-27T01:35:29.148Z,88.10
2022-08-27T01:37:57.435Z,87.30
2022-08-27T01:40:26.297Z,87.19
2022-08-27T01:42:58.898Z,87.81
2022-08-27T01:45:30.792Z,88.08
2022-08-27T01:48:00.590Z,88.06
2022-08-27T01:50:33.110Z,87.58
2022-08-27T01:53:05.416Z,87.71
2022-08-27T01:55:33.695Z,87.76
2022-08-27T01:58:03.566Z,87.42
2022-08-27T02:00:37.548Z,87.65
2022-08-27T02:03:07.403Z,87.55
2022-08-27T02:05:44.841Z,87.62
2022-08-27T02:08:15.933Z,86.14
2022-08-27T02:10:46.728Z,86.41
2022-08-27T02:13:17.737Z,86.46
2022-08-27T02:15:46.965Z,86.87
2022-08-27T02:18:16.292Z,87.35
2022-08-27T02:20:46.104Z,86.38
2022-08-27T02:23:14.766Z,86.05
2022-08-27T02:25:43.045Z,86.62
2022-08-27T02:28:11.628Z,87.47
2022-08-27T02:30:42.047Z,86.35
2022-08-27T02:33:10.241Z,85.91
2022-08-27T02:35:40.675Z,86.12
2022-08-27T02:38:09.913Z,83.20
2022-08-27T02:40:38.318Z,83.24
2022-08-27T02:43:06.843Z,83.67
2022-08-27T02:45:36.600Z,83.50
2022-08-27T02:48:08.275Z,83.28
2022-08-27T02:50:37.378Z,82.61
2022-08-27T02:53:07.436Z,82.78
2022-08-27T02:55:36.291Z,82.17
2022-08-27T02:58:05.661Z,81.34
2022-08-27T03:00:34.603Z,80.52
2022-08-27T03:03:05.170Z,80.74
2022-08-27T03:05:33.510Z,80.62
2022-08-27T03:08:01.879Z,81.10
2022-08-27T03:10:30.793Z,81.90
2022-08-27T03:12:59.434Z,81.23
2022-08-27T03:15:27.751Z,80.26
2022-08-27T03:18:13.478Z,80.66
2022-08-27T03:20:45.962Z,80.99
2022-08-27T03:23:15.665Z,80.84
2022-08-27T03:25:49.267Z,81.53
2022-08-27T03:28:22.543Z,81.05
2022-08-27T03:30:54.286Z,80.86
2022-08-27T03:33:23.361Z,82.37
2022-08-27T03:35:52.893Z,82.00
2022-08-27T03:38:21.437Z,81.88
2022-08-27T03:40:50.407Z,83.09
2022-08-27T03:43:21.339Z,81.52
2022-08-27T03:46:00.655Z,81.60
2022-08-27T03:48:31.866Z,82.39
2022-08-27T03:51:06.643Z,82.65
2022-08-27T03:53:36.256Z,83.84
2022-08-27T03:56:06.257Z,84.09
2022-08-27T03:58:34.724Z,84.28
2022-08-27T04:01:03.482Z,83.96
2022-08-27T04:03:31.858Z,83.43
2022-08-27T04:06:01.355Z,83.10
2022-08-27T04:08:31.044Z,82.40
2022-08-27T04:10:59.247Z,82.65
2022-08-27T04:13:27.432Z,83.26
2022-08-27T04:15:56.662Z,82.56
2022-08-27T04:18:24.987Z,80.98
2022-08-27T04:20:53.650Z,81.22
2022-08-27T04:23:23.691Z,82.59
2022-08-27T04:25:52.267Z,81.17
2022-08-27T04:28:20.416Z,81.15
2022-08-27T04:30:48.847Z,82.62
2022-08-27T04:33:17.410Z,81.63
2022-08-27T04:35:45.577Z,81.08
2022-08-27T04:38:13.709Z,81.02
2022-08-27T04:41:02.750Z,81.56
2022-08-27T04:43:30.899Z,81.59
2022-08-27T04:45:59.063Z,82.33
2022-08-27T04:48:27.377Z,81.74
2022-08-27T04:50:55.580Z,81.48
2022-08-27T04:53:23.749Z,81.28
2022-08-27T04:55:56.313Z,80.99
2022-08-27T04:58:27.197Z,80.09
2022-08-27T05:01:01.506Z,80.66
2022-08-27T05:03:29.986Z,80.06
2022-08-27T05:06:02.873Z,80.95
2022-08-27T05:08:32.418Z,79.72
2022-08-27T05:11:02.096Z,80.50
2022-08-27T05:13:31.268Z,80.56
2022-08-27T05:16:01.992Z,80.45
2022-08-27T05:18:33.271Z,79.50
2022-08-27T05:21:03.506Z,79.90
2022-08-27T05:23:32.519Z,80.09
2022-08-27T05:26:08.914Z,79.29
2022-08-27T05:28:37.173Z,79.95
2022-08-27T05:31:09.094Z,78.15
2022-08-27T05:33:39.656Z,77.85
2022-08-27T05:36:15.044Z,77.83
2022-08-27T05:38:43.564Z,78.22
2022-08-27T05:41:17.739Z,76.77
2022-08-27T05:43:50.131Z,76.87
2022-08-27T05:46:22.385Z,77.06
2022-08-27T05:48:52.416Z,76.88
2022-08-27T05:51:25.856Z,76.46
2022-08-27T05:53:58.505Z,77.09
2022-08-27T05:56:30.997Z,76.44
2022-08-27T05:59:17.154Z,76.11
2022-08-27T06:01:49.257Z,75.89
2022-08-27T06:04:20.473Z,75.88
2022-08-27T06:06:50.111Z,75.82
2022-08-27T06:09:23.403Z,76.59
2022-08-27T06:11:55.553Z,77.64
2022-08-27T06:14:24.030Z,77.53
2022-08-27T06:16:52.203Z,77.77
2022-08-27T06:19:21.323Z,77.44
2022-08-27T06:22:00.255Z,77.85
2022-08-27T06:24:29.934Z,77.55
2022-08-27T06:26:59.484Z,76.97
2022-08-27T06:29:27.680Z,77.57
2022-08-27T06:31:56.371Z,76.77
2022-08-27T06:34:24.458Z,75.96
2022-08-27T06:36:53.407Z,76.65
2022-08-27T06:39:21.653Z,77.19
2022-08-27T06:41:50.296Z,76.72
2022-08-27T06:44:20.999Z,75.86
2022-08-27T06:46:49.089Z,76.28
2022-08-27T06:49:17.650Z,76.90
2022-08-27T06:51:48.658Z,77.71
2022-08-27T06:54:19.971Z,77.16
2022-08-27T06:56:49.551Z,76.37
2022-08-27T06:59:20.768Z,76.34
2022-08-27T07:01:51.374Z,77.07
2022-08-27T07:04:27.885Z,77.14
2022-08-27T07:07:02.073Z,77.12
2022-08-27T07:09:32.090Z,76.53
2022-08-27T07:12:00.794Z,76.83
2022-08-27T07:14:35.652Z,78.22
2022-08-27T07:17:11.223Z,77.52
2022-08-27T07:19:44.218Z,77.09
2022-08-27T07:22:12.994Z,76.80
2022-08-27T07:24:41.480Z,76.83
2022-08-27T07:27:10.314Z,77.76
2022-08-27T07:29:40.196Z,78.64
2022-08-27T07:32:08.404Z,78.58
2022-08-27T07:34:36.528Z,77.95
2022-08-27T07:37:05.041Z,77.50
2022-08-27T07:39:33.246Z,78.18
2022-08-27T07:42:19.124Z,78.43
2022-08-27T07:44:49.858Z,78.45
2022-08-27T07:47:17.993Z,77.69
2022-08-27T07:49:46.175Z,77.76
2022-08-27T07:52:17.191Z,78.96
2022-08-27T07:54:45.443Z,79.04
2022-08-27T07:57:13.582Z,79.97
2022-08-27T07:59:41.724Z,79.64
2022-08-27T08:02:12.821Z,79.81
2022-08-27T08:04:40.958Z,80.13
2022-08-27T08:07:09.393Z,80.65
2022-08-27T08:09:37.526Z,81.08
2022-08-27T08:12:07.484Z,80.90
2022-08-27T08:14:36.901Z,80.46
2022-08-27T08:17:06.378Z,80.69
2022-08-27T08:19:40.382Z,80.06
2022-08-27T08:22:09.018Z,80.62
2022-08-27T08:24:37.843Z,80.81
2022-08-27T08:27:07.820Z,78.38
2022-08-27T08:29:37.604Z,78.86
2022-08-27T08:32:06.933Z,78.69
2022-08-27T08:34:36.802Z,78.39
2022-08-27T08:37:07.757Z,78.71
2022-08-27T08:39:38.672Z,76.83
2022-08-27T08:42:18.576Z,77.57
2022-08-27T08:44:53.707Z,76.33
2022-08-27T08:47:27.736Z,76.60
2022-08-27T08:50:09.102Z,74.73
2022-08-27T08:52:51.670Z,75.10
2022-08-27T08:55:36.696Z,75.93
2022-08-27T08:58:20.915Z,74.49
2022-08-27T09:00:57.607Z,73.35
2022-08-27T09:03:26.623Z,73.90
2022-08-27T09:06:03.406Z,73.26
2022-08-27T09:08:41.140Z,74.33
2022-08-27T09:11:24.603Z,74.77
2022-08-27T09:13:59.656Z,74.25
2022-08-27T09:16:28.411Z,74.03
2022-08-27T09:18:57.075Z,73.89
2022-08-27T09:21:41.830Z,74.64
2022-08-27T09:24:26.279Z,74.19
2022-08-27T09:26:55.301Z,73.29
2022-08-27T09:29:30.006Z,73.22
2022-08-27T09:32:01.524Z,74.85
2022-08-27T09:34:36.791Z,75.10
2022-08-27T09:37:12.107Z,74.21
2022-08-27T09:39:53.456Z,73.78
2022-08-27T09:42:31.824Z,74.80
2022-08-27T09:45:00.675Z,75.05
2022-08-27T09:47:28.981Z,74.77
2022-08-27T09:50:10.642Z,74.90
2022-08-27T09:52:51.242Z,75.26
2022-08-27T09:55:37.993Z,77.42
2022-08-27T09:58:20.015Z,78.04
2022-08-27T10:00:52.398Z,79.12
2022-08-27T10:03:23.649Z,79.17
2022-08-27T10:05:54.248Z,79.21
2022-08-27T10:08:31.118Z,79.54
2022-08-27T10:11:06.103Z,79.90
2022-08-27T10:13:54.020Z,80.15
2022-08-27T10:17:03.390Z,80.14
2022-08-27T10:19:50.124Z,80.97
2022-08-27T10:22:33.068Z,82.38
2022-08-27T10:25:23.755Z,81.47
2022-08-27T10:28:11.349Z,79.67
2022-08-27T10:31:03.379Z,80.25
2022-08-27T10:33:43.507Z,79.49
2022-08-27T10:36:26.372Z,78.20
2022-08-27T10:39:06.957Z,77.13
2022-08-27T10:41:43.233Z,77.19
2022-08-27T10:44:37.909Z,76.67
2022-08-27T10:47:29.283Z,76.91
2022-08-27T10:50:07.653Z,76.03
2022-08-27T10:52:51.482Z,75.01
2022-08-27T10:55:26.880Z,74.71
2022-08-27T10:58:13.382Z,74.44
2022-08-27T11:00:50.695Z,74.61
2022-08-27T11:03:32.196Z,75.74
2022-08-27T11:06:11.429Z,75.31
2022-08-27T11:08:49.797Z,73.54
2022-08-27T11:14:32.618Z,72.58
2022-08-27T11:17:09.507Z,73.22
2022-08-27T11:19:54.278Z,70.91
2022-08-27T11:22:34.116Z,69.38
2022-08-27T11:25:16.621Z,70.58
2022-08-27T11:27:47.890Z,71.07
2022-08-27T11:30:26.960Z,71.80
2022-08-27T11:33:11.036Z,72.33
2022-08-27T11:36:10.552Z,71.32
2022-08-27T11:38:51.858Z,70.99
2022-08-27T11:41:53.147Z,70.46
2022-08-27T11:44:26.549Z,71.22
2022-08-27T11:46:58.732Z,70.78
2022-08-27T11:49:35.966Z,69.73
2022-08-27T11:52:08.516Z,68.66
2022-08-27T11:54:48.232Z,67.87
2022-08-27T11:57:27.674Z,68.17
2022-08-27T11:59:56.072Z,68.26
2022-08-27T12:02:27.491Z,69.06
2022-08-27T12:05:11.215Z,67.37
2022-08-27T12:07:51.562Z,68.49
2022-08-27T12:10:38.813Z,68.23
2022-08-27T12:13:22.346Z,69.12
2022-08-27T12:16:03.114Z,68.38
2022-08-27T12:18:54.683Z,69.31
2022-08-27T12:21:41.610Z,68.96
2022-08-27T12:24:31.500Z,69.42
2022-08-27T12:27:13.958Z,69.08
2022-08-27T12:29:52.972Z,68.77
2022-08-27T12:32:29.770Z,68.45
2022-08-27T12:35:10.870Z,68.68
2022-08-27T12:37:46.391Z,68.44
2022-08-27T12:40:24.399Z,67.88
2022-08-27T12:43:05.976Z,68.00
2022-08-27T12:45:42.910Z,66.87
2022-08-27T12:48:11.747Z,65.28
2022-08-27T12:50:40.999Z,63.92
2022-08-27T12:53:42.413Z,63.91
2022-08-27T12:56:52.404Z,64.65
2022-08-27T12:59:47.835Z,64.86
2022-08-27T13:02:46.696Z,63.74
2022-08-27T13:05:20.273Z,65.42
2022-08-27T13:07:51.767Z,65.29
2022-08-27T13:10:27.630Z,65.72
2022-08-27T13:13:06.736Z,65.88
2022-08-27T13:15:35.759Z,65.60
2022-08-27T13:18:07.353Z,65.63
2022-08-27T13:20:40.213Z,64.33
2022-08-27T13:23:19.854Z,64.53
2022-08-27T13:26:06.858Z,64.78
2022-08-27T13:28:38.243Z,63.73
2022-08-27T13:31:10.221Z,62.99
2022-08-27T13:33:40.944Z,62.60
2022-08-27T13:36:10.561Z,60.83
2022-08-27T13:38:49.301Z,59.67
2022-08-27T13:41:30.226Z,59.81
2022-08-27T13:44:07.234Z,59.29
2022-08-27T13:46:46.203Z,59.20
2022-08-27T13:49:22.256Z,58.85
2022-08-27T13:51:58.709Z,58.66
2022-08-27T13:54:25.961Z,59.41
2022-08-27T13:57:08.147Z,59.51
2022-08-27T13:59:43.239Z,60.07
2022-08-27T14:02:26.943Z,59.13
2022-08-27T14:05:13.286Z,59.35
2022-08-27T14:07:48.472Z,59.98
2022-08-27T14:10:34.729Z,61.03
2022-08-27T14:13:08.228Z,61.79
2022-08-27T14:15:40.656Z,61.78
2022-08-27T14:18:37.091Z,61.34
2022-08-27T14:21:10.576Z,61.11
2022-08-27T14:23:38.714Z,61.00
2022-08-27T14:26:07.094Z,60.73
2022-08-27T14:28:36.891Z,60.47
2022-08-27T14:31:05.150Z,59.70
2022-08-27T14:33:33.247Z,60.06
2022-08-27T14:36:01.435Z,59.60
2022-08-27T14:38:33.898Z,59.95
2022-08-27T14:41:02.304Z,60.41
2022-08-27T14:43:36.243Z,61.07
2022-08-27T14:46:07.497Z,60.67
2022-08-27T14:48:36.893Z,61.40
2022-08-27T14:51:14.390Z,61.48
2022-08-27T14:53:42.491Z,62.39
2022-08-27T14:56:10.694Z,62.50
2022-08-27T14:58:40.235Z,63.06
2022-08-27T15:01:08.525Z,62.87
2022-08-27T15:03:44.792Z,62.28
2022-08-27T15:06:12.981Z,62.80
2022-08-27T15:08:44.612Z,63.23
2022-08-27T15:11:18.319Z,63.59
2022-08-27T15:13:48.162Z,63.50
2022-08-27T15:16:17.174Z,64.22
2022-08-27T15:19:00.331Z,62.79
2022-08-27T15:21:31.522Z,62.73
2022-08-27T15:24:03.581Z,62.28
2022-08-27T15:26:33.216Z,61.63
2022-08-27T15:29:06.347Z,61.84
2022-08-27T15:31:35.808Z,60.31
2022-08-27T15:34:04.455Z,59.38
2022-08-27T15:36:32.569Z,59.38
2022-08-27T15:39:00.740Z,59.79
2022-08-27T15:41:29.568Z,60.25
2022-08-27T15:43:58.803Z,62.52
2022-08-27T15:46:28.596Z,71.64
2022-08-27T15:48:57.372Z,77.30
2022-08-27T15:51:31.336Z,81.38
2022-08-27T15:54:01.388Z,85.04
2022-08-27T15:56:34.315Z,87.05
2022-08-27T15:59:03.059Z,88.93
2022-08-27T16:01:37.459Z,90.65
2022-08-27T16:04:07.132Z,91.61
2022-08-27T16:06:35.642Z,92.55
2022-08-27T16:09:04.651Z,92.21
2022-08-27T16:11:32.771Z,91.75
2022-08-27T16:14:01.375Z,92.37
2022-08-27T16:16:33.545Z,93.21
2022-08-27T16:19:04.071Z,93.62
2022-08-27T16:21:34.806Z,93.74
2022-08-27T16:24:04.274Z,94.27
2022-08-27T16:26:32.381Z,94.07
2022-08-27T16:29:01.266Z,94.83
2022-08-27T16:31:29.910Z,94.42
2022-08-27T16:34:02.422Z,93.66
2022-08-27T16:36:30.716Z,93.79
2022-08-27T16:38:58.873Z,93.95
2022-08-27T16:41:27.121Z,93.98
2022-08-27T16:43:55.607Z,94.31
2022-08-27T16:46:23.714Z,95.38
2022-08-27T16:49:09.729Z,95.94
2022-08-27T16:51:40.072Z,95.08
2022-08-27T16:54:10.614Z,94.93
2022-08-27T16:56:40.064Z,94.75
2022-08-27T16:59:09.274Z,95.08
2022-08-27T17:01:38.292Z,94.19
2022-08-27T17:04:11.673Z,93.54
2022-08-27T17:06:45.476Z,92.53
2022-08-27T17:09:14.735Z,93.03
2022-08-27T17:11:49.185Z,93.40
2022-08-27T17:14:17.651Z,93.30
2022-08-27T17:16:45.757Z,93.97
2022-08-27T17:19:17.102Z,95.39
2022-08-27T17:21:47.145Z,96.17
2022-08-27T17:24:15.295Z,96.32
2022-08-27T17:26:43.402Z,96.86
2022-08-27T17:29:11.497Z,96.99
2022-08-27T17:31:43.486Z,97.66
2022-08-27T17:34:18.572Z,98.07
2022-08-27T17:36:48.465Z,98.93
2022-08-27T17:39:17.558Z,99.07
2022-08-27T17:41:50.100Z,99.46
2022-08-27T17:44:24.115Z,99.50
2022-08-27T17:46:54.208Z,97.98
2022-08-27T17:49:22.742Z,97.15
2022-08-27T17:51:57.738Z,97.17
2022-08-27T17:54:32.366Z,97.10
2022-08-27T17:57:01.870Z,97.55
2022-08-27T17:59:30.755Z,96.49
2022-08-27T18:01:59.113Z,96.27
2022-08-27T18:04:27.307Z,95.37
2022-08-27T18:06:56.764Z,95.41
2022-08-27T18:09:24.895Z,95.08
2022-08-27T18:11:53.342Z,91.55
2022-08-27T18:14:24.744Z,91.39
2022-08-27T18:16:52.873Z,91.18
2022-08-27T18:19:21.093Z,90.49
2022-08-27T18:21:49.237Z,90.12
2022-08-27T18:24:18.975Z,88.51
2022-08-27T18:26:47.488Z,88.53
2022-08-27T18:29:16.684Z,89.86
2022-08-27T18:31:45.347Z,91.40
2022-08-27T18:34:17.512Z,92.07
2022-08-27T18:36:48.253Z,89.42
2022-08-27T18:39:18.245Z,90.65
2022-08-27T18:41:46.517Z,91.89
2022-08-27T18:44:17.144Z,91.73
2022-08-27T18:46:46.472Z,90.91
2022-08-27T18:49:14.881Z,90.69
2022-08-27T18:51:48.165Z,91.16
2022-08-27T18:54:22.061Z,92.10
2022-08-27T18:56:50.303Z,92.40
2022-08-27T18:59:18.486Z,90.00
2022-08-27T19:01:47.667Z,89.75
2022-08-27T19:04:16.470Z,89.70
2022-08-27T19:06:44.636Z,88.99
2022-08-27T19:09:13.969Z,89.09
2022-08-27T19:11:43.770Z,88.17
2022-08-27T19:14:11.905Z,88.13
2022-08-27T19:16:44.768Z,86.64
2022-08-27T19:19:16.485Z,86.58
2022-08-27T19:21:50.648Z,87.21
2022-08-27T19:24:21.282Z,87.42
2022-08-27T19:26:51.387Z,86.82
2022-08-27T19:29:19.840Z,86.37
2022-08-27T19:31:48.489Z,85.52
2022-08-27T19:34:16.836Z,86.18
2022-08-27T19:36:45.503Z,85.56
2022-08-27T19:39:14.638Z,84.43
2022-08-27T19:41:42.879Z,85.36
2022-08-27T19:44:12.354Z,85.64
2022-08-27T19:46:40.839Z,85.66
2022-08-27T19:49:08.937Z,86.18
2022-08-27T19:51:37.010Z,85.31
2022-08-27T19:54:05.541Z,84.54
2022-08-27T19:56:34.403Z,84.30
2022-08-27T19:59:15.821Z,82.12
2022-08-27T20:01:52.659Z,82.37
2022-08-27T20:04:21.055Z,82.83
2022-08-27T20:06:49.654Z,82.92
2022-08-27T20:09:21.135Z,80.94
2022-08-27T20:11:50.526Z,80.96
2022-08-27T20:14:19.540Z,81.07
2022-08-27T20:16:48.098Z,81.61
2022-08-27T20:19:19.949Z,81.78
2022-08-27T20:21:48.001Z,81.95
2022-08-27T20:24:16.156Z,81.87
2022-08-27T20:26:44.282Z,81.04
2022-08-27T20:29:15.054Z,80.12
2022-08-27T20:32:00.515Z,80.82
2022-08-27T20:34:32.446Z,81.24
2022-08-27T20:37:02.225Z,81.20
2022-08-27T20:39:30.491Z,82.68
2022-08-27T20:41:58.926Z,83.82
2022-08-27T20:44:27.356Z,83.91
2022-08-27T20:47:02.280Z,84.85
2022-08-27T20:49:32.264Z,84.60
2022-08-27T20:52:03.220Z,84.21
2022-08-27T20:54:33.763Z,82.51
2022-08-27T20:57:03.261Z,82.95
2022-08-27T20:59:49.380Z,84.18
2022-08-27T21:02:23.243Z,83.90
2022-08-27T21:04:54.093Z,82.42
2022-08-27T21:07:24.482Z,83.04
2022-08-27T21:09:52.770Z,82.91
2022-08-27T21:12:26.515Z,82.60
2022-08-27T21:14:56.391Z,82.96
2022-08-27T21:17:26.075Z,81.91
2022-08-27T21:19:56.639Z,80.02
2022-08-27T21:22:26.208Z,80.35
2022-08-27T21:24:54.841Z,80.53
2022-08-27T21:27:23.526Z,80.09
2022-08-27T21:29:52.099Z,81.11
2022-08-27T21:32:20.430Z,81.53
2022-08-27T21:34:48.692Z,80.93
2022-08-27T21:37:19.564Z,80.52
2022-08-27T21:39:47.955Z,79.62
2022-08-27T21:42:16.609Z,79.10
2022-08-27T21:44:44.711Z,79.12
2022-08-27T21:47:12.919Z,78.80
2022-08-27T21:49:41.979Z,78.71
2022-08-27T21:52:10.548Z,79.46
2022-08-27T21:54:42.335Z,79.80
2022-08-27T21:57:14.155Z,79.98
2022-08-27T21:59:45.824Z,79.94
2022-08-27T22:02:38.114Z,79.15
2022-08-27T22:05:03.172Z,79.42
2022-08-27T22:07:31.256Z,79.19
2022-08-27T22:10:00.738Z,79.01
2022-08-27T22:12:28.884Z,78.94
2022-08-27T22:14:56.955Z,79.61
2022-08-27T22:17:25.098Z,78.43
2022-08-27T22:19:53.373Z,78.08
2022-08-27T22:22:21.532Z,78.30
2022-08-27T22:24:49.676Z,79.64
2022-08-27T22:27:22.042Z,80.81
2022-08-27T22:29:50.128Z,80.03
2022-08-27T22:32:18.227Z,78.87
2022-08-27T22:34:46.347Z,78.13
2022-08-27T22:37:14.440Z,78.34
2022-08-27T22:39:42.616Z,78.44
2022-08-27T22:42:13.018Z,77.82
2022-08-27T22:44:47.178Z,77.32
2022-08-27T22:47:15.424Z,77.14
2022-08-27T22:49:44.760Z,77.44
2022-08-27T22:52:13.369Z,77.22
2022-08-27T22:54:41.561Z,76.77
2022-08-27T22:57:10.646Z,76.22
2022-08-27T22:59:39.348Z,76.25
2022-08-27T23:02:10.895Z,76.93
2022-08-27T23:04:54.601Z,77.25
2022-08-27T23:07:23.823Z,77.78
2022-08-27T23:09:52.001Z,77.78
2022-08-27T23:12:20.781Z,77.78
2022-08-27T23:14:49.368Z,76.50
2022-08-27T23:17:19.799Z,77.58
2022-08-27T23:19:47.975Z,77.67
2022-08-27T23:22:16.515Z,75.89
2022-08-27T23:24:58.902Z,75.58
2022-08-27T23:27:30.254Z,75.50
2022-08-27T23:29:59.675Z,76.66
2022-08-27T23:32:29.693Z,77.46
2022-08-27T23:34:57.963Z,78.87
2022-08-27T23:37:26.378Z,80.08
2022-08-27T23:39:55.118Z,77.33
2022-08-27T23:42:23.640Z,77.23
2022-08-27T23:44:52.129Z,77.72
2022-08-27T23:47:20.274Z,78.99
2022-08-27T23:49:49.748Z,78.25
2022-08-27T23:52:17.869Z,77.37
2022-08-27T23:54:45.955Z,78.26
2022-08-27T23:57:14.083Z,77.47
2022-08-27T23:59:42.363Z,77.92
